sensor_id;sensor_type;location;lat;lon;timestamp;pressure;altitude;pressure_sealevel;temperature;humidity
27613;BME280;15036;48.094;-1.690;2023-09-07T00:00:19;100937.50;;;31.43;50.35
27613;BME280;15036;48.094;-1.690;2023-09-07T00:02:45;100937.34;;;31.39;50.35
27613;BME280;15036;48.094;-1.690;2023-09-07T00:05:11;100938.81;;;31.37;50.55
27613;BME280;15036;48.094;-1.690;2023-09-07T00:07:38;100939.31;;;31.30;50.42
27613;BME280;15036;48.094;-1.690;2023-09-07T00:10:03;100938.97;;;31.32;50.55
27613;BME280;15036;48.094;-1.690;2023-09-07T00:12:29;100946.94;;;31.30;50.33
27613;BME280;15036;48.094;-1.690;2023-09-07T00:14:55;100951.44;;;31.31;50.50
27613;BME280;15036;48.094;-1.690;2023-09-07T00:17:22;100941.78;;;31.32;50.04
27613;BME280;15036;48.094;-1.690;2023-09-07T00:19:47;100938.66;;;31.42;50.17
27613;BME280;15036;48.094;-1.690;2023-09-07T00:22:16;100933.50;;;31.44;50.60
27613;BME280;15036;48.094;-1.690;2023-09-07T00:24:43;100927.66;;;31.32;50.67
27613;BME280;15036;48.094;-1.690;2023-09-07T00:27:08;100927.69;;;31.23;50.93
27613;BME280;15036;48.094;-1.690;2023-09-07T00:29:35;100917.41;;;31.27;50.92
27613;BME280;15036;48.094;-1.690;2023-09-07T00:32:01;100923.06;;;31.27;50.87
27613;BME280;15036;48.094;-1.690;2023-09-07T00:34:26;100916.91;;;31.51;50.57
27613;BME280;15036;48.094;-1.690;2023-09-07T00:36:51;100914.09;;;31.25;50.98
27613;BME280;15036;48.094;-1.690;2023-09-07T00:39:16;100920.72;;;31.12;51.49
27613;BME280;15036;48.094;-1.690;2023-09-07T00:41:42;100915.91;;;31.13;51.57
27613;BME280;15036;48.094;-1.690;2023-09-07T00:44:07;100915.91;;;31.13;51.40
27613;BME280;15036;48.094;-1.690;2023-09-07T00:46:33;100915.91;;;31.04;51.46
27613;BME280;15036;48.094;-1.690;2023-09-07T00:48:58;100915.91;;;31.13;51.46
27613;BME280;15036;48.094;-1.690;2023-09-07T00:51:24;100906.47;;;31.17;51.27
27613;BME280;15036;48.094;-1.690;2023-09-07T00:53:50;100910.28;;;30.96;51.55
27613;BME280;15036;48.094;-1.690;2023-09-07T00:56:16;100907.78;;;30.86;51.72
27613;BME280;15036;48.094;-1.690;2023-09-07T00:58:42;100909.88;;;30.71;52.25
27613;BME280;15036;48.094;-1.690;2023-09-07T01:01:08;100905.63;;;30.91;51.87
27613;BME280;15036;48.094;-1.690;2023-09-07T01:03:34;100901.97;;;30.91;51.63
27613;BME280;15036;48.094;-1.690;2023-09-07T01:06:22;100910.88;;;30.75;51.79
27613;BME280;15036;48.094;-1.690;2023-09-07T01:08:54;100906.38;;;30.57;52.47
27613;BME280;15036;48.094;-1.690;2023-09-07T01:11:21;100908.88;;;30.67;52.35
27613;BME280;15036;48.094;-1.690;2023-09-07T01:13:48;100903.91;;;30.73;52.04
27613;BME280;15036;48.094;-1.690;2023-09-07T01:16:14;100899.28;;;30.77;51.99
27613;BME280;15036;48.094;-1.690;2023-09-07T01:18:40;100896.31;;;30.82;51.95
27613;BME280;15036;48.094;-1.690;2023-09-07T01:21:06;100902.06;;;30.68;52.22
27613;BME280;15036;48.094;-1.690;2023-09-07T01:23:37;100895.91;;;30.49;52.41
27613;BME280;15036;48.094;-1.690;2023-09-07T01:26:07;100891.38;;;30.31;52.97
27613;BME280;15036;48.094;-1.690;2023-09-07T01:28:32;100889.78;;;30.47;52.85
27613;BME280;15036;48.094;-1.690;2023-09-07T01:30:58;100885.13;;;30.34;52.81
27613;BME280;15036;48.094;-1.690;2023-09-07T01:33:23;100868.03;;;30.39;52.85
27613;BME280;15036;48.094;-1.690;2023-09-07T01:35:49;100878.47;;;30.30;53.00
27613;BME280;15036;48.094;-1.690;2023-09-07T01:38:14;100873.97;;;30.29;52.71
27613;BME280;15036;48.094;-1.690;2023-09-07T01:40:40;100875.75;;;30.25;53.10
27613;BME280;15036;48.094;-1.690;2023-09-07T01:43:05;100876.34;;;30.36;52.70
27613;BME280;15036;48.094;-1.690;2023-09-07T01:45:30;100871.94;;;30.21;53.12
27613;BME280;15036;48.094;-1.690;2023-09-07T01:47:56;100871.44;;;30.11;53.52
27613;BME280;15036;48.094;-1.690;2023-09-07T01:50:21;100858.16;;;30.11;53.24
27613;BME280;15036;48.094;-1.690;2023-09-07T01:52:47;100858.16;;;30.11;53.29
27613;BME280;15036;48.094;-1.690;2023-09-07T01:55:15;100860.16;;;30.19;53.07
27613;BME280;15036;48.094;-1.690;2023-09-07T01:57:40;100863.19;;;30.23;53.11
27613;BME280;15036;48.094;-1.690;2023-09-07T02:00:06;100864.81;;;30.24;52.74
27613;BME280;15036;48.094;-1.690;2023-09-07T02:02:32;100865.28;;;30.17;52.68
27613;BME280;15036;48.094;-1.690;2023-09-07T02:04:58;100864.78;;;30.15;53.15
27613;BME280;15036;48.094;-1.690;2023-09-07T02:07:23;100867.44;;;30.12;52.90
27613;BME280;15036;48.094;-1.690;2023-09-07T02:09:48;100855.34;;;30.11;52.84
27613;BME280;15036;48.094;-1.690;2023-09-07T02:12:14;100856.00;;;30.08;52.84
27613;BME280;15036;48.094;-1.690;2023-09-07T02:14:39;100852.69;;;30.06;52.91
27613;BME280;15036;48.094;-1.690;2023-09-07T02:17:04;100859.84;;;30.12;52.68
27613;BME280;15036;48.094;-1.690;2023-09-07T02:19:30;100855.84;;;30.13;52.68
27613;BME280;15036;48.094;-1.690;2023-09-07T02:21:55;100861.97;;;30.07;52.47
27613;BME280;15036;48.094;-1.690;2023-09-07T02:24:20;100855.50;;;30.06;52.42
27613;BME280;15036;48.094;-1.690;2023-09-07T02:26:46;100856.31;;;29.98;52.87
27613;BME280;15036;48.094;-1.690;2023-09-07T02:29:12;100867.06;;;29.96;53.04
27613;BME280;15036;48.094;-1.690;2023-09-07T02:31:39;100863.91;;;29.98;52.88
27613;BME280;15036;48.094;-1.690;2023-09-07T02:34:04;100859.91;;;29.90;52.68
27613;BME280;15036;48.094;-1.690;2023-09-07T02:36:30;100853.44;;;29.89;52.89
27613;BME280;15036;48.094;-1.690;2023-09-07T02:38:55;100851.97;;;29.92;52.71
27613;BME280;15036;48.094;-1.690;2023-09-07T02:41:20;100860.75;;;29.90;52.90
27613;BME280;15036;48.094;-1.690;2023-09-07T02:43:46;100856.25;;;29.89;53.00
27613;BME280;15036;48.094;-1.690;2023-09-07T02:46:11;100856.09;;;29.86;53.24
27613;BME280;15036;48.094;-1.690;2023-09-07T02:48:36;100848.16;;;29.88;52.97
27613;BME280;15036;48.094;-1.690;2023-09-07T02:51:02;100853.44;;;29.89;53.04
27613;BME280;15036;48.094;-1.690;2023-09-07T02:53:28;100857.75;;;29.87;53.08
27613;BME280;15036;48.094;-1.690;2023-09-07T02:55:53;100850.44;;;29.86;53.15
27613;BME280;15036;48.094;-1.690;2023-09-07T02:58:18;100849.94;;;29.84;52.92
27613;BME280;15036;48.094;-1.690;2023-09-07T03:00:44;100857.44;;;29.88;52.54
27613;BME280;15036;48.094;-1.690;2023-09-07T03:03:13;100850.78;;;29.84;52.67
27613;BME280;15036;48.094;-1.690;2023-09-07T03:05:43;100854.75;;;29.83;52.76
27613;BME280;15036;48.094;-1.690;2023-09-07T03:08:09;100855.41;;;29.80;52.93
27613;BME280;15036;48.094;-1.690;2023-09-07T03:10:38;100860.53;;;29.78;53.05
27613;BME280;15036;48.094;-1.690;2023-09-07T03:13:04;100856.88;;;29.78;52.92
27613;BME280;15036;48.094;-1.690;2023-09-07T03:15:30;100849.59;;;29.77;52.63
27613;BME280;15036;48.094;-1.690;2023-09-07T03:17:56;100848.75;;;29.76;52.99
27613;BME280;15036;48.094;-1.690;2023-09-07T03:20:21;100854.72;;;29.75;53.03
27613;BME280;15036;48.094;-1.690;2023-09-07T03:22:47;100857.34;;;29.71;53.06
27613;BME280;15036;48.094;-1.690;2023-09-07T03:25:13;100850.88;;;29.71;52.64
27613;BME280;15036;48.094;-1.690;2023-09-07T03:27:38;100850.34;;;29.69;53.17
27613;BME280;15036;48.094;-1.690;2023-09-07T03:30:04;100852.78;;;29.62;52.85
27613;BME280;15036;48.094;-1.690;2023-09-07T03:32:31;100843.53;;;29.61;53.05
27613;BME280;15036;48.094;-1.690;2023-09-07T03:35:03;100841.03;;;29.60;52.87
27613;BME280;15036;48.094;-1.690;2023-09-07T03:37:29;100850.13;;;29.57;52.82
27613;BME280;15036;48.094;-1.690;2023-09-07T03:39:55;100844.50;;;29.57;53.34
27613;BME280;15036;48.094;-1.690;2023-09-07T03:42:21;100849.63;;;29.55;52.98
27613;BME280;15036;48.094;-1.690;2023-09-07T03:44:47;100854.75;;;29.53;53.56
27613;BME280;15036;48.094;-1.690;2023-09-07T03:47:13;100858.69;;;29.52;53.56
27613;BME280;15036;48.094;-1.690;2023-09-07T03:49:39;100846.47;;;29.56;53.66
27613;BME280;15036;48.094;-1.690;2023-09-07T03:52:04;100847.44;;;29.52;53.48
27613;BME280;15036;48.094;-1.690;2023-09-07T03:54:31;100849.22;;;29.48;53.69
27613;BME280;15036;48.094;-1.690;2023-09-07T03:56:56;100840.94;;;29.43;53.75
27613;BME280;15036;48.094;-1.690;2023-09-07T03:59:22;100838.13;;;29.43;54.02
27613;BME280;15036;48.094;-1.690;2023-09-07T04:01:47;100840.75;;;29.39;54.04
27613;BME280;15036;48.094;-1.690;2023-09-07T04:04:12;100843.38;;;29.36;54.06
27613;BME280;15036;48.094;-1.690;2023-09-07T04:06:38;100844.34;;;29.31;53.96
27613;BME280;15036;48.094;-1.690;2023-09-07T04:09:04;100851.44;;;29.29;53.91
27613;BME280;15036;48.094;-1.690;2023-09-07T04:11:30;100850.28;;;29.07;54.68
27613;BME280;15036;48.094;-1.690;2023-09-07T04:13:55;100850.47;;;29.11;54.64
27613;BME280;15036;48.094;-1.690;2023-09-07T04:16:21;100846.22;;;29.14;54.94
27613;BME280;15036;48.094;-1.690;2023-09-07T04:18:46;100849.84;;;29.14;54.54
27613;BME280;15036;48.094;-1.690;2023-09-07T04:21:11;100850.47;;;29.11;54.87
27613;BME280;15036;48.094;-1.690;2023-09-07T04:23:37;100850.16;;;29.12;54.74
27613;BME280;15036;48.094;-1.690;2023-09-07T04:26:07;100838.84;;;29.26;54.27
27613;BME280;15036;48.094;-1.690;2023-09-07T04:28:33;100841.06;;;29.38;54.30
27613;BME280;15036;48.094;-1.690;2023-09-07T04:30:59;100841.22;;;29.33;54.32
27613;BME280;15036;48.094;-1.690;2023-09-07T04:33:24;100845.75;;;29.20;54.62
27613;BME280;15036;48.094;-1.690;2023-09-07T04:35:50;100842.63;;;28.99;55.02
27613;BME280;15036;48.094;-1.690;2023-09-07T04:38:15;100837.34;;;28.62;56.19
27613;BME280;15036;48.094;-1.690;2023-09-07T04:40:40;100838.56;;;28.70;56.28
27613;BME280;15036;48.094;-1.690;2023-09-07T04:43:06;100841.75;;;28.77;55.91
27613;BME280;15036;48.094;-1.690;2023-09-07T04:45:31;100842.78;;;28.81;55.44
27613;BME280;15036;48.094;-1.690;2023-09-07T04:47:56;100842.34;;;28.87;55.36
27613;BME280;15036;48.094;-1.690;2023-09-07T04:50:22;100843.94;;;28.80;55.68
27613;BME280;15036;48.094;-1.690;2023-09-07T04:52:47;100846.75;;;29.02;55.15
27613;BME280;15036;48.094;-1.690;2023-09-07T04:55:12;100842.88;;;28.89;55.48
27613;BME280;15036;48.094;-1.690;2023-09-07T04:57:38;100837.69;;;28.83;55.32
27613;BME280;15036;48.094;-1.690;2023-09-07T05:00:05;100839.13;;;28.80;55.75
27613;BME280;15036;48.094;-1.690;2023-09-07T05:02:31;100845.41;;;28.77;55.65
27613;BME280;15036;48.094;-1.690;2023-09-07T05:04:57;100842.53;;;28.91;55.49
27613;BME280;15036;48.094;-1.690;2023-09-07T05:07:22;100843.44;;;28.78;55.58
27613;BME280;15036;48.094;-1.690;2023-09-07T05:09:47;100849.88;;;28.78;55.74
27613;BME280;15036;48.094;-1.690;2023-09-07T05:12:14;100845.41;;;28.77;55.44
27613;BME280;15036;48.094;-1.690;2023-09-07T05:14:39;100840.91;;;28.76;55.61
27613;BME280;15036;48.094;-1.690;2023-09-07T05:17:05;100846.75;;;28.80;55.27
27613;BME280;15036;48.094;-1.690;2023-09-07T05:19:30;100849.88;;;28.78;55.34
27613;BME280;15036;48.094;-1.690;2023-09-07T05:21:55;100850.63;;;28.70;55.56
27613;BME280;15036;48.094;-1.690;2023-09-07T05:24:21;100846.53;;;28.76;55.46
27613;BME280;15036;48.094;-1.690;2023-09-07T05:26:46;100848.22;;;28.77;55.69
27613;BME280;15036;48.094;-1.690;2023-09-07T05:29:12;100852.56;;;28.83;55.50
27613;BME280;15036;48.094;-1.690;2023-09-07T05:31:38;100849.34;;;28.76;55.43
27613;BME280;15036;48.094;-1.690;2023-09-07T05:34:03;100848.72;;;28.79;55.59
27613;BME280;15036;48.094;-1.690;2023-09-07T05:36:29;100853.19;;;28.80;55.75
27613;BME280;15036;48.094;-1.690;2023-09-07T05:38:55;100860.16;;;28.83;55.33
27613;BME280;15036;48.094;-1.690;2023-09-07T05:41:20;100861.63;;;28.80;55.56
27613;BME280;15036;48.094;-1.690;2023-09-07T05:43:45;100859.13;;;28.79;55.55
27613;BME280;15036;48.094;-1.690;2023-09-07T05:46:11;100849.25;;;28.81;55.74
27613;BME280;15036;48.094;-1.690;2023-09-07T05:48:36;100853.00;;;28.77;55.65
27613;BME280;15036;48.094;-1.690;2023-09-07T05:51:02;100855.91;;;28.85;55.70
27613;BME280;15036;48.094;-1.690;2023-09-07T05:53:27;100861.72;;;28.89;55.61
27613;BME280;15036;48.094;-1.690;2023-09-07T05:55:52;100863.69;;;28.88;55.22
27613;BME280;15036;48.094;-1.690;2023-09-07T05:58:18;100867.91;;;28.99;55.21
27613;BME280;15036;48.094;-1.690;2023-09-07T06:00:43;100868.28;;;29.06;54.89
27613;BME280;15036;48.094;-1.690;2023-09-07T06:03:09;100869.13;;;29.07;54.92
27613;BME280;15036;48.094;-1.690;2023-09-07T06:05:35;100866.19;;;29.12;54.92
27613;BME280;15036;48.094;-1.690;2023-09-07T06:08:02;100862.91;;;28.96;55.19
27613;BME280;15036;48.094;-1.690;2023-09-07T06:10:28;100859.59;;;28.94;55.44
27613;BME280;15036;48.094;-1.690;2023-09-07T06:12:55;100856.16;;;28.97;55.35
27613;BME280;15036;48.094;-1.690;2023-09-07T06:15:20;100862.66;;;29.06;55.17
27613;BME280;15036;48.094;-1.690;2023-09-07T06:17:46;100856.03;;;29.02;55.12
27613;BME280;15036;48.094;-1.690;2023-09-07T06:20:11;100859.00;;;29.06;54.75
27613;BME280;15036;48.094;-1.690;2023-09-07T06:22:36;100858.91;;;29.11;54.91
27613;BME280;15036;48.094;-1.690;2023-09-07T06:25:02;100859.97;;;29.15;54.34
27613;BME280;15036;48.094;-1.690;2023-09-07T06:27:27;100868.91;;;29.17;54.62
27613;BME280;15036;48.094;-1.690;2023-09-07T06:29:53;100862.84;;;29.24;54.12
27613;BME280;15036;48.094;-1.690;2023-09-07T06:32:18;100872.78;;;29.30;54.24
27613;BME280;15036;48.094;-1.690;2023-09-07T06:34:44;100869.19;;;29.38;53.77
27613;BME280;15036;48.094;-1.690;2023-09-07T06:37:10;100870.44;;;29.45;53.70
27613;BME280;15036;48.094;-1.690;2023-09-07T06:39:35;100876.31;;;29.66;52.73
27613;BME280;15036;48.094;-1.690;2023-09-07T06:42:01;100875.41;;;29.48;53.62
27613;BME280;15036;48.094;-1.690;2023-09-07T06:44:26;100875.78;;;29.55;53.17
27613;BME280;15036;48.094;-1.690;2023-09-07T06:46:52;100877.31;;;29.61;53.20
27613;BME280;15036;48.094;-1.690;2023-09-07T06:49:17;100884.94;;;29.69;52.78
27613;BME280;15036;48.094;-1.690;2023-09-07T06:51:43;100888.50;;;29.75;52.84
27613;BME280;15036;48.094;-1.690;2023-09-07T06:54:08;100881.81;;;30.02;51.84
27613;BME280;15036;48.094;-1.690;2023-09-07T06:56:33;100885.88;;;29.78;51.94
27613;BME280;15036;48.094;-1.690;2023-09-07T06:59:00;100887.31;;;30.15;51.16
27613;BME280;15036;48.094;-1.690;2023-09-07T07:01:25;100884.78;;;29.97;51.60
27613;BME280;15036;48.094;-1.690;2023-09-07T07:03:51;100891.81;;;30.16;51.05
27613;BME280;15036;48.094;-1.690;2023-09-07T07:06:16;100887.50;;;30.10;51.10
27613;BME280;15036;48.094;-1.690;2023-09-07T07:08:41;100880.72;;;30.20;50.91
27613;BME280;15036;48.094;-1.690;2023-09-07T07:11:07;100892.91;;;30.37;50.12
27613;BME280;15036;48.094;-1.690;2023-09-07T07:13:33;100888.63;;;30.48;49.79
27613;BME280;15036;48.094;-1.690;2023-09-07T07:15:58;100895.28;;;30.52;49.43
27613;BME280;15036;48.094;-1.690;2023-09-07T07:18:23;100894.44;;;30.60;49.16
27613;BME280;15036;48.094;-1.690;2023-09-07T07:20:49;100890.81;;;30.60;49.07
27613;BME280;15036;48.094;-1.690;2023-09-07T07:23:16;100888.16;;;30.63;49.31
27613;BME280;15036;48.094;-1.690;2023-09-07T07:25:42;100886.66;;;30.74;48.78
27613;BME280;15036;48.094;-1.690;2023-09-07T07:28:07;100890.78;;;30.68;48.81
27613;BME280;15036;48.094;-1.690;2023-09-07T07:30:37;100886.66;;;30.74;48.71
27613;BME280;15036;48.094;-1.690;2023-09-07T07:33:04;100891.34;;;30.88;48.25
27613;BME280;15036;48.094;-1.690;2023-09-07T07:35:30;100888.34;;;30.93;48.44
27613;BME280;15036;48.094;-1.690;2023-09-07T07:37:55;100887.53;;;30.84;48.53
27613;BME280;15036;48.094;-1.690;2023-09-07T07:40:21;100892.19;;;30.88;48.42
27613;BME280;15036;48.094;-1.690;2023-09-07T07:42:47;100887.03;;;31.07;48.00
27613;BME280;15036;48.094;-1.690;2023-09-07T07:45:13;100878.41;;;31.21;47.65
27613;BME280;15036;48.094;-1.690;2023-09-07T07:47:42;100887.06;;;31.16;47.55
27613;BME280;15036;48.094;-1.690;2023-09-07T07:50:08;100886.03;;;31.29;47.31
27613;BME280;15036;48.094;-1.690;2023-09-07T07:52:33;100891.84;;;31.15;47.78
27613;BME280;15036;48.094;-1.690;2023-09-07T07:54:59;100887.50;;;31.26;47.42
27613;BME280;15036;48.094;-1.690;2023-09-07T07:57:24;100892.34;;;31.43;47.31
27613;BME280;15036;48.094;-1.690;2023-09-07T07:59:50;100894.31;;;31.51;47.08
27613;BME280;15036;48.094;-1.690;2023-09-07T08:02:15;100897.78;;;31.65;46.36
27613;BME280;15036;48.094;-1.690;2023-09-07T08:04:41;100896.59;;;31.66;46.53
27613;BME280;15036;48.094;-1.690;2023-09-07T08:07:06;100896.25;;;31.68;46.64
27613;BME280;15036;48.094;-1.690;2023-09-07T08:09:33;100887.28;;;31.74;46.34
27613;BME280;15036;48.094;-1.690;2023-09-07T08:11:59;100883.75;;;31.86;46.28
27613;BME280;15036;48.094;-1.690;2023-09-07T08:14:28;100884.72;;;31.90;46.66
27613;BME280;15036;48.094;-1.690;2023-09-07T08:16:53;100882.63;;;31.78;46.78
27613;BME280;15036;48.094;-1.690;2023-09-07T08:19:19;100884.72;;;31.98;46.21
27613;BME280;15036;48.094;-1.690;2023-09-07T08:21:45;100889.00;;;32.13;46.27
27613;BME280;15036;48.094;-1.690;2023-09-07T08:24:11;100883.66;;;32.11;46.36
27613;BME280;15036;48.094;-1.690;2023-09-07T08:26:37;100887.91;;;32.26;46.05
27613;BME280;15036;48.094;-1.690;2023-09-07T08:29:03;100896.41;;;32.26;45.89
27613;BME280;15036;48.094;-1.690;2023-09-07T08:31:33;100894.16;;;32.40;45.61
27613;BME280;15036;48.094;-1.690;2023-09-07T08:34:02;100894.41;;;32.56;45.16
27613;BME280;15036;48.094;-1.690;2023-09-07T08:36:29;100892.13;;;32.49;45.48
27613;BME280;15036;48.094;-1.690;2023-09-07T08:38:57;100892.44;;;32.56;45.39
27613;BME280;15036;48.094;-1.690;2023-09-07T08:41:25;100892.78;;;32.75;44.87
27613;BME280;15036;48.094;-1.690;2023-09-07T08:43:52;100892.84;;;32.87;44.72
27613;BME280;15036;48.094;-1.690;2023-09-07T08:46:19;100889.53;;;32.85;44.32
27613;BME280;15036;48.094;-1.690;2023-09-07T08:48:47;100892.28;;;32.73;44.65
27613;BME280;15036;48.094;-1.690;2023-09-07T08:51:15;100887.47;;;32.94;44.52
27613;BME280;15036;48.094;-1.690;2023-09-07T08:53:40;100890.25;;;33.03;44.41
27613;BME280;15036;48.094;-1.690;2023-09-07T08:56:08;100889.91;;;33.04;44.65
27613;BME280;15036;48.094;-1.690;2023-09-07T08:58:36;100889.69;;;32.89;43.86
27613;BME280;15036;48.094;-1.690;2023-09-07T09:01:01;100896.34;;;33.13;43.88
27613;BME280;15036;48.094;-1.690;2023-09-07T09:03:26;100902.66;;;33.10;43.89
27613;BME280;15036;48.094;-1.690;2023-09-07T09:05:54;100905.44;;;33.19;43.67
27613;BME280;15036;48.094;-1.690;2023-09-07T09:08:20;100902.44;;;33.36;43.51
27613;BME280;15036;48.094;-1.690;2023-09-07T09:10:49;100900.44;;;33.37;43.23
27613;BME280;15036;48.094;-1.690;2023-09-07T09:13:33;100906.66;;;33.30;43.57
27613;BME280;15036;48.094;-1.690;2023-09-07T09:15:59;100894.50;;;33.50;43.09
27613;BME280;15036;48.094;-1.690;2023-09-07T09:18:26;100903.00;;;33.30;43.48
27613;BME280;15036;48.094;-1.690;2023-09-07T09:20:52;100896.56;;;33.41;43.63
27613;BME280;15036;48.094;-1.690;2023-09-07T09:23:18;100904.81;;;33.46;43.03
27613;BME280;15036;48.094;-1.690;2023-09-07T09:25:43;100901.75;;;33.72;43.11
27613;BME280;15036;48.094;-1.690;2023-09-07T09:28:10;100904.00;;;33.78;43.06
27613;BME280;15036;48.094;-1.690;2023-09-07T09:30:38;100902.72;;;33.88;42.93
27613;BME280;15036;48.094;-1.690;2023-09-07T09:33:05;100907.09;;;33.85;43.28
27613;BME280;15036;48.094;-1.690;2023-09-07T09:35:31;100902.63;;;33.96;43.58
27613;BME280;15036;48.094;-1.690;2023-09-07T09:38:00;100901.16;;;34.11;42.97
27613;BME280;15036;48.094;-1.690;2023-09-07T09:40:30;100905.28;;;34.26;42.38
27613;BME280;15036;48.094;-1.690;2023-09-07T09:42:56;100905.63;;;34.36;41.69
27613;BME280;15036;48.094;-1.690;2023-09-07T09:45:23;100910.50;;;34.48;41.45
27613;BME280;15036;48.094;-1.690;2023-09-07T09:47:50;100908.69;;;34.31;42.22
27613;BME280;15036;48.094;-1.690;2023-09-07T09:50:16;100910.72;;;34.55;41.73
27613;BME280;15036;48.094;-1.690;2023-09-07T09:52:42;100909.56;;;34.56;41.41
27613;BME280;15036;48.094;-1.690;2023-09-07T09:55:08;100908.81;;;34.59;41.44
27613;BME280;15036;48.094;-1.690;2023-09-07T09:57:38;100898.75;;;34.85;41.04
27613;BME280;15036;48.094;-1.690;2023-09-07T10:00:04;100904.06;;;34.99;41.22
27613;BME280;15036;48.094;-1.690;2023-09-07T10:03:12;100893.06;;;34.98;40.91
27613;BME280;15036;48.094;-1.690;2023-09-07T10:05:39;100894.31;;;35.12;40.19
27613;BME280;15036;48.094;-1.690;2023-09-07T10:08:11;100892.84;;;35.18;40.08
27613;BME280;15036;48.094;-1.690;2023-09-07T10:10:38;100895.03;;;35.37;38.99
27613;BME280;15036;48.094;-1.690;2023-09-07T10:13:05;100894.25;;;35.24;39.40
27613;BME280;15036;48.094;-1.690;2023-09-07T10:15:31;100889.06;;;35.54;39.08
27613;BME280;15036;48.094;-1.690;2023-09-07T10:18:14;100891.03;;;35.65;38.99
27613;BME280;15036;48.094;-1.690;2023-09-07T10:20:54;100885.53;;;35.72;38.35
27613;BME280;15036;48.094;-1.690;2023-09-07T10:23:22;100893.09;;;35.53;37.30
27613;BME280;15036;48.094;-1.690;2023-09-07T10:25:49;100883.59;;;35.61;37.50
27613;BME280;15036;48.094;-1.690;2023-09-07T10:28:32;100877.69;;;36.13;37.21
27613;BME280;15036;48.094;-1.690;2023-09-07T10:30:58;100878.31;;;36.06;37.86
27613;BME280;15036;48.094;-1.690;2023-09-07T10:33:24;100872.81;;;36.29;37.22
27613;BME280;15036;48.094;-1.690;2023-09-07T10:35:49;100877.47;;;36.37;37.18
27613;BME280;15036;48.094;-1.690;2023-09-07T10:38:15;100879.50;;;36.52;36.33
27613;BME280;15036;48.094;-1.690;2023-09-07T10:40:42;100878.41;;;36.76;36.30
27613;BME280;15036;48.094;-1.690;2023-09-07T10:43:09;100874.34;;;36.92;36.18
27613;BME280;15036;48.094;-1.690;2023-09-07T10:45:34;100878.09;;;36.96;35.34
27613;BME280;15036;48.094;-1.690;2023-09-07T10:47:59;100872.09;;;37.01;35.61
27613;BME280;15036;48.094;-1.690;2023-09-07T10:50:25;100868.59;;;37.08;36.01
27613;BME280;15036;48.094;-1.690;2023-09-07T10:52:50;100869.72;;;37.42;35.23
27613;BME280;15036;48.094;-1.690;2023-09-07T10:55:16;100862.34;;;37.60;34.84
27613;BME280;15036;48.094;-1.690;2023-09-07T10:57:44;100855.19;;;37.69;34.38
27613;BME280;15036;48.094;-1.690;2023-09-07T11:00:13;100862.50;;;37.70;34.49
27613;BME280;15036;48.094;-1.690;2023-09-07T11:02:39;100861.38;;;37.75;34.70
27613;BME280;15036;48.094;-1.690;2023-09-07T11:05:06;100854.34;;;37.69;34.55
27613;BME280;15036;48.094;-1.690;2023-09-07T11:07:31;100858.13;;;37.95;34.33
27613;BME280;15036;48.094;-1.690;2023-09-07T11:09:58;100847.06;;;38.16;33.88
27613;BME280;15036;48.094;-1.690;2023-09-07T11:12:23;100854.16;;;38.03;34.38
27613;BME280;15036;48.094;-1.690;2023-09-07T11:14:50;100850.53;;;38.03;34.32
27613;BME280;15036;48.094;-1.690;2023-09-07T11:17:16;100851.28;;;37.77;33.93
27613;BME280;15036;48.094;-1.690;2023-09-07T11:19:41;100852.19;;;38.07;33.62
27613;BME280;15036;48.094;-1.690;2023-09-07T11:22:09;100851.16;;;37.93;34.14
27613;BME280;15036;48.094;-1.690;2023-09-07T11:24:35;100844.28;;;38.20;33.88
27613;BME280;15036;48.094;-1.690;2023-09-07T11:27:00;100843.34;;;38.12;33.83
27613;BME280;15036;48.094;-1.690;2023-09-07T11:29:26;100841.97;;;37.80;34.18
27613;BME280;15036;48.094;-1.690;2023-09-07T11:31:51;100847.03;;;37.90;34.11
27613;BME280;15036;48.094;-1.690;2023-09-07T11:34:17;100841.31;;;38.13;33.94
27613;BME280;15036;48.094;-1.690;2023-09-07T11:36:43;100842.53;;;37.89;33.90
27613;BME280;15036;48.094;-1.690;2023-09-07T11:39:09;100841.81;;;37.96;33.84
27613;BME280;15036;48.094;-1.690;2023-09-07T11:41:41;100831.97;;;38.16;33.86
27613;BME280;15036;48.094;-1.690;2023-09-07T11:44:07;100844.06;;;38.58;33.23
27613;BME280;15036;48.094;-1.690;2023-09-07T11:46:33;100835.31;;;38.44;33.03
27613;BME280;15036;48.094;-1.690;2023-09-07T11:48:59;100836.19;;;38.74;32.69
27613;BME280;15036;48.094;-1.690;2023-09-07T11:51:25;100824.25;;;38.98;31.85
27613;BME280;15036;48.094;-1.690;2023-09-07T11:53:50;100822.28;;;38.73;32.03
27613;BME280;15036;48.094;-1.690;2023-09-07T11:56:15;100828.28;;;37.89;32.92
27613;BME280;15036;48.094;-1.690;2023-09-07T11:58:41;100822.09;;;38.10;32.85
27613;BME280;15036;48.094;-1.690;2023-09-07T12:01:07;100816.16;;;39.37;31.60
27613;BME280;15036;48.094;-1.690;2023-09-07T12:03:34;100804.06;;;39.51;30.66
27613;BME280;15036;48.094;-1.690;2023-09-07T12:05:59;100812.50;;;39.77;29.39
27613;BME280;15036;48.094;-1.690;2023-09-07T12:08:25;100810.72;;;40.06;28.94
27613;BME280;15036;48.094;-1.690;2023-09-07T12:10:50;100812.97;;;40.33;28.68
27613;BME280;15036;48.094;-1.690;2023-09-07T12:13:15;100817.16;;;40.43;28.21
27613;BME280;15036;48.094;-1.690;2023-09-07T12:15:41;100814.44;;;40.67;27.88
27613;BME280;15036;48.094;-1.690;2023-09-07T12:18:06;100815.31;;;40.79;27.34
27613;BME280;15036;48.094;-1.690;2023-09-07T12:20:32;100809.53;;;40.72;27.60
27613;BME280;15036;48.094;-1.690;2023-09-07T12:23:00;100815.81;;;40.95;27.28
27613;BME280;15036;48.094;-1.690;2023-09-07T12:25:25;100812.09;;;40.91;27.09
27613;BME280;15036;48.094;-1.690;2023-09-07T12:27:51;100817.53;;;41.13;27.07
27613;BME280;15036;48.094;-1.690;2023-09-07T12:30:18;100815.06;;;41.12;26.69
27613;BME280;15036;48.094;-1.690;2023-09-07T12:32:45;100808.19;;;41.37;26.50
27613;BME280;15036;48.094;-1.690;2023-09-07T12:35:10;100807.88;;;41.67;26.46